sensor_id;sensor_type;location;lat;lon;timestamp;P1;durP1;ratioP1;P2;durP2;ratioP2
78027;SDS011;67235;45.638;11.714;2023-04-24T00:00:14;21.02;;;11.10;;
78027;SDS011;67235;45.638;11.714;2023-04-24T00:02:43;25.73;;;12.75;;
78027;SDS011;67235;45.638;11.714;2023-04-24T00:05:12;22.55;;;12.73;;
78027;SDS011;67235;45.638;11.714;2023-04-24T00:07:38;22.15;;;11.70;;
78027;SDS011;67235;45.638;11.714;2023-04-24T00:10:05;24.35;;;12.85;;
78027;SDS011;67235;45.638;11.714;2023-04-24T00:12:31;26.33;;;12.27;;
78027;SDS011;67235;45.638;11.714;2023-04-24T00:14:57;29.75;;;13.40;;
78027;SDS011;67235;45.638;11.714;2023-04-24T00:17:23;23.17;;;12.33;;
78027;SDS011;67235;45.638;11.714;2023-04-24T00:19:49;23.92;;;12.32;;
78027;SDS011;67235;45.638;11.714;2023-04-24T00:22:26;19.70;;;10.98;;
78027;SDS011;67235;45.638;11.714;2023-04-24T00:24:54;23.15;;;12.75;;
78027;SDS011;67235;45.638;11.714;2023-04-24T00:27:20;20.90;;;12.07;;
78027;SDS011;67235;45.638;11.714;2023-04-24T00:29:46;22.92;;;12.43;;
78027;SDS011;67235;45.638;11.714;2023-04-24T00:32:12;20.85;;;11.32;;
78027;SDS011;67235;45.638;11.714;2023-04-24T00:34:38;25.58;;;12.27;;
78027;SDS011;67235;45.638;11.714;2023-04-24T00:37:04;23.15;;;12.10;;
78027;SDS011;67235;45.638;11.714;2023-04-24T00:39:31;22.83;;;11.45;;
78027;SDS011;67235;45.638;11.714;2023-04-24T00:41:57;23.63;;;11.75;;
78027;SDS011;67235;45.638;11.714;2023-04-24T00:44:24;23.30;;;11.43;;
78027;SDS011;67235;45.638;11.714;2023-04-24T00:46:50;23.83;;;12.68;;
78027;SDS011;67235;45.638;11.714;2023-04-24T00:49:19;25.37;;;13.37;;
78027;SDS011;67235;45.638;11.714;2023-04-24T00:51:46;22.48;;;12.23;;
78027;SDS011;67235;45.638;11.714;2023-04-24T00:54:14;24.75;;;13.13;;
78027;SDS011;67235;45.638;11.714;2023-04-24T00:56:40;22.02;;;12.65;;
78027;SDS011;67235;45.638;11.714;2023-04-24T00:59:07;24.25;;;12.35;;
78027;SDS011;67235;45.638;11.714;2023-04-24T01:01:33;24.67;;;12.20;;
78027;SDS011;67235;45.638;11.714;2023-04-24T01:04:00;21.42;;;12.20;;
78027;SDS011;67235;45.638;11.714;2023-04-24T01:06:28;23.55;;;11.77;;
78027;SDS011;67235;45.638;11.714;2023-04-24T01:08:56;22.63;;;12.45;;
78027;SDS011;67235;45.638;11.714;2023-04-24T01:11:25;19.23;;;11.75;;
78027;SDS011;67235;45.638;11.714;2023-04-24T01:13:51;21.10;;;10.47;;
78027;SDS011;67235;45.638;11.714;2023-04-24T01:16:18;24.50;;;11.13;;
78027;SDS011;67235;45.638;11.714;2023-04-24T01:18:45;20.67;;;11.18;;
78027;SDS011;67235;45.638;11.714;2023-04-24T01:21:13;19.17;;;10.65;;
78027;SDS011;67235;45.638;11.714;2023-04-24T01:23:41;22.85;;;11.35;;
78027;SDS011;67235;45.638;11.714;2023-04-24T01:26:11;18.47;;;10.13;;
78027;SDS011;67235;45.638;11.714;2023-04-24T01:28:38;18.15;;;10.80;;
78027;SDS011;67235;45.638;11.714;2023-04-24T01:31:04;20.25;;;10.18;;
78027;SDS011;67235;45.638;11.714;2023-04-24T01:33:30;16.35;;;10.00;;
78027;SDS011;67235;45.638;11.714;2023-04-24T01:35:57;19.37;;;10.80;;
78027;SDS011;67235;45.638;11.714;2023-04-24T01:38:23;17.55;;;10.23;;
78027;SDS011;67235;45.638;11.714;2023-04-24T01:40:49;16.23;;;9.43;;
78027;SDS011;67235;45.638;11.714;2023-04-24T01:43:15;17.60;;;9.40;;
78027;SDS011;67235;45.638;11.714;2023-04-24T01:45:41;20.43;;;9.97;;
78027;SDS011;67235;45.638;11.714;2023-04-24T01:48:07;17.33;;;9.63;;
78027;SDS011;67235;45.638;11.714;2023-04-24T01:50:33;15.95;;;8.98;;
78027;SDS011;67235;45.638;11.714;2023-04-24T01:52:59;16.77;;;8.67;;
78027;SDS011;67235;45.638;11.714;2023-04-24T01:55:25;14.38;;;8.75;;
78027;SDS011;67235;45.638;11.714;2023-04-24T01:57:52;13.95;;;8.05;;
78027;SDS011;67235;45.638;11.714;2023-04-24T02:00:20;16.45;;;8.63;;
78027;SDS011;67235;45.638;11.714;2023-04-24T02:02:46;15.03;;;8.40;;
78027;SDS011;67235;45.638;11.714;2023-04-24T02:05:11;16.67;;;8.88;;
78027;SDS011;67235;45.638;11.714;2023-04-24T02:07:37;17.23;;;8.83;;
78027;SDS011;67235;45.638;11.714;2023-04-24T02:10:03;17.17;;;8.23;;
78027;SDS011;67235;45.638;11.714;2023-04-24T02:12:30;18.05;;;8.77;;
78027;SDS011;67235;45.638;11.714;2023-04-24T02:14:56;16.50;;;8.53;;
78027;SDS011;67235;45.638;11.714;2023-04-24T02:17:21;13.95;;;7.93;;
78027;SDS011;67235;45.638;11.714;2023-04-24T02:19:47;18.92;;;8.55;;
78027;SDS011;67235;45.638;11.714;2023-04-24T02:22:13;14.07;;;7.70;;
78027;SDS011;67235;45.638;11.714;2023-04-24T02:24:39;17.63;;;8.35;;
78027;SDS011;67235;45.638;11.714;2023-04-24T02:27:05;14.70;;;8.13;;
78027;SDS011;67235;45.638;11.714;2023-04-24T02:29:31;18.63;;;8.95;;
78027;SDS011;67235;45.638;11.714;2023-04-24T02:31:57;13.95;;;7.95;;
78027;SDS011;67235;45.638;11.714;2023-04-24T02:34:23;15.27;;;8.10;;
78027;SDS011;67235;45.638;11.714;2023-04-24T02:36:48;13.27;;;8.00;;
78027;SDS011;67235;45.638;11.714;2023-04-24T02:39:14;15.25;;;8.13;;
78027;SDS011;67235;45.638;11.714;2023-04-24T02:41:43;12.98;;;7.50;;
78027;SDS011;67235;45.638;11.714;2023-04-24T02:44:09;14.93;;;7.13;;
78027;SDS011;67235;45.638;11.714;2023-04-24T02:46:35;12.45;;;6.90;;
78027;SDS011;67235;45.638;11.714;2023-04-24T02:49:01;12.97;;;6.93;;
78027;SDS011;67235;45.638;11.714;2023-04-24T02:51:27;13.02;;;7.38;;
78027;SDS011;67235;45.638;11.714;2023-04-24T02:53:53;12.63;;;7.05;;
78027;SDS011;67235;45.638;11.714;2023-04-24T02:56:19;12.80;;;6.72;;
78027;SDS011;67235;45.638;11.714;2023-04-24T02:58:45;14.02;;;7.38;;
78027;SDS011;67235;45.638;11.714;2023-04-24T03:01:11;12.63;;;6.60;;
78027;SDS011;67235;45.638;11.714;2023-04-24T03:03:37;10.52;;;6.85;;
78027;SDS011;67235;45.638;11.714;2023-04-24T03:06:04;12.40;;;6.47;;
78027;SDS011;67235;45.638;11.714;2023-04-24T03:08:31;14.27;;;7.10;;
78027;SDS011;67235;45.638;11.714;2023-04-24T03:10:57;14.82;;;7.00;;
78027;SDS011;67235;45.638;11.714;2023-04-24T03:13:23;11.77;;;6.78;;
78027;SDS011;67235;45.638;11.714;2023-04-24T03:15:49;12.67;;;6.57;;
78027;SDS011;67235;45.638;11.714;2023-04-24T03:18:15;12.88;;;6.68;;
78027;SDS011;67235;45.638;11.714;2023-04-24T03:20:40;12.57;;;6.65;;
78027;SDS011;67235;45.638;11.714;2023-04-24T03:23:06;11.68;;;6.97;;
78027;SDS011;67235;45.638;11.714;2023-04-24T03:25:32;11.90;;;6.38;;
78027;SDS011;67235;45.638;11.714;2023-04-24T03:27:58;11.97;;;6.63;;
78027;SDS011;67235;45.638;11.714;2023-04-24T03:30:24;11.32;;;6.32;;
78027;SDS011;67235;45.638;11.714;2023-04-24T03:32:50;11.70;;;5.97;;
78027;SDS011;67235;45.638;11.714;2023-04-24T03:35:17;12.70;;;6.60;;
78027;SDS011;67235;45.638;11.714;2023-04-24T03:37:42;10.75;;;6.47;;
78027;SDS011;67235;45.638;11.714;2023-04-24T03:40:09;11.50;;;6.15;;
78027;SDS011;67235;45.638;11.714;2023-04-24T03:42:35;11.63;;;5.93;;
78027;SDS011;67235;45.638;11.714;2023-04-24T03:45:01;10.68;;;5.90;;
78027;SDS011;67235;45.638;11.714;2023-04-24T03:47:28;12.75;;;6.18;;
78027;SDS011;67235;45.638;11.714;2023-04-24T03:49:59;10.82;;;6.10;;
78027;SDS011;67235;45.638;11.714;2023-04-24T03:52:26;11.60;;;5.72;;
78027;SDS011;67235;45.638;11.714;2023-04-24T03:54:53;11.20;;;6.00;;
78027;SDS011;67235;45.638;11.714;2023-04-24T03:57:19;10.40;;;5.97;;
78027;SDS011;67235;45.638;11.714;2023-04-24T03:59:45;10.32;;;5.97;;
78027;SDS011;67235;45.638;11.714;2023-04-24T04:02:11;13.37;;;6.70;;
78027;SDS011;67235;45.638;11.714;2023-04-24T04:04:37;12.32;;;6.20;;
78027;SDS011;67235;45.638;11.714;2023-04-24T04:07:02;13.20;;;6.32;;
78027;SDS011;67235;45.638;11.714;2023-04-24T04:09:30;11.93;;;6.63;;
78027;SDS011;67235;45.638;11.714;2023-04-24T04:11:56;10.30;;;5.95;;
78027;SDS011;67235;45.638;11.714;2023-04-24T04:14:22;9.82;;;5.50;;
78027;SDS011;67235;45.638;11.714;2023-04-24T04:16:48;11.32;;;5.93;;
78027;SDS011;67235;45.638;11.714;2023-04-24T04:19:18;10.45;;;5.82;;
78027;SDS011;67235;45.638;11.714;2023-04-24T04:21:44;10.40;;;6.03;;
78027;SDS011;67235;45.638;11.714;2023-04-24T04:24:11;12.13;;;6.35;;
78027;SDS011;67235;45.638;11.714;2023-04-24T04:26:37;12.35;;;6.57;;
78027;SDS011;67235;45.638;11.714;2023-04-24T04:29:03;15.07;;;7.50;;
78027;SDS011;67235;45.638;11.714;2023-04-24T04:31:29;13.18;;;6.97;;
78027;SDS011;67235;45.638;11.714;2023-04-24T04:33:55;13.03;;;7.60;;
78027;SDS011;67235;45.638;11.714;2023-04-24T04:36:21;14.73;;;7.10;;
78027;SDS011;67235;45.638;11.714;2023-04-24T04:38:49;14.05;;;7.78;;
78027;SDS011;67235;45.638;11.714;2023-04-24T04:41:14;15.52;;;7.80;;
78027;SDS011;67235;45.638;11.714;2023-04-24T04:43:41;16.70;;;8.90;;
78027;SDS011;67235;45.638;11.714;2023-04-24T04:46:07;15.48;;;7.97;;
78027;SDS011;67235;45.638;11.714;2023-04-24T04:48:35;15.70;;;7.18;;
78027;SDS011;67235;45.638;11.714;2023-04-24T04:51:01;17.42;;;8.82;;
78027;SDS011;67235;45.638;11.714;2023-04-24T04:53:27;16.83;;;9.27;;
78027;SDS011;67235;45.638;11.714;2023-04-24T04:55:53;14.40;;;8.40;;
78027;SDS011;67235;45.638;11.714;2023-04-24T04:58:19;17.88;;;9.32;;
78027;SDS011;67235;45.638;11.714;2023-04-24T05:00:46;16.77;;;8.20;;
78027;SDS011;67235;45.638;11.714;2023-04-24T05:03:12;17.70;;;8.98;;
78027;SDS011;67235;45.638;11.714;2023-04-24T05:05:39;16.35;;;9.48;;
78027;SDS011;67235;45.638;11.714;2023-04-24T05:08:09;20.92;;;11.05;;
78027;SDS011;67235;45.638;11.714;2023-04-24T05:10:38;17.25;;;9.73;;
78027;SDS011;67235;45.638;11.714;2023-04-24T05:13:04;20.70;;;10.17;;
78027;SDS011;67235;45.638;11.714;2023-04-24T05:15:30;18.63;;;9.90;;
78027;SDS011;67235;45.638;11.714;2023-04-24T05:17:56;20.73;;;9.47;;
78027;SDS011;67235;45.638;11.714;2023-04-24T05:20:22;20.67;;;9.45;;
78027;SDS011;67235;45.638;11.714;2023-04-24T05:22:48;19.95;;;10.43;;
78027;SDS011;67235;45.638;11.714;2023-04-24T05:25:14;17.70;;;9.15;;
78027;SDS011;67235;45.638;11.714;2023-04-24T05:27:40;19.70;;;10.10;;
78027;SDS011;67235;45.638;11.714;2023-04-24T05:30:06;19.25;;;10.05;;
78027;SDS011;67235;45.638;11.714;2023-04-24T05:32:32;17.80;;;9.80;;
78027;SDS011;67235;45.638;11.714;2023-04-24T05:34:58;19.92;;;9.68;;
78027;SDS011;67235;45.638;11.714;2023-04-24T05:37:24;20.33;;;9.77;;
78027;SDS011;67235;45.638;11.714;2023-04-24T05:39:50;20.33;;;10.60;;
78027;SDS011;67235;45.638;11.714;2023-04-24T05:42:16;17.90;;;9.68;;
78027;SDS011;67235;45.638;11.714;2023-04-24T05:44:42;17.67;;;9.67;;
78027;SDS011;67235;45.638;11.714;2023-04-24T05:47:08;18.42;;;9.90;;
78027;SDS011;67235;45.638;11.714;2023-04-24T05:49:34;18.00;;;10.18;;
78027;SDS011;67235;45.638;11.714;2023-04-24T05:52:00;18.53;;;9.80;;
78027;SDS011;67235;45.638;11.714;2023-04-24T05:54:25;16.88;;;9.65;;
78027;SDS011;67235;45.638;11.714;2023-04-24T05:56:51;17.73;;;10.10;;
78027;SDS011;67235;45.638;11.714;2023-04-24T05:59:19;16.95;;;9.27;;
78027;SDS011;67235;45.638;11.714;2023-04-24T06:01:45;18.95;;;8.98;;
78027;SDS011;67235;45.638;11.714;2023-04-24T06:04:11;24.03;;;16.00;;
78027;SDS011;67235;45.638;11.714;2023-04-24T06:06:38;17.67;;;10.50;;
78027;SDS011;67235;45.638;11.714;2023-04-24T06:09:05;43.50;;;29.08;;
78027;SDS011;67235;45.638;11.714;2023-04-24T06:11:31;33.20;;;23.98;;
78027;SDS011;67235;45.638;11.714;2023-04-24T06:13:57;41.83;;;30.80;;
78027;SDS011;67235;45.638;11.714;2023-04-24T06:16:23;26.10;;;14.30;;
78027;SDS011;67235;45.638;11.714;2023-04-24T06:18:50;25.67;;;13.98;;
78027;SDS011;67235;45.638;11.714;2023-04-24T06:21:16;20.38;;;12.98;;
78027;SDS011;67235;45.638;11.714;2023-04-24T06:23:42;18.37;;;9.30;;
78027;SDS011;67235;45.638;11.714;2023-04-24T06:26:09;28.73;;;18.83;;
78027;SDS011;67235;45.638;11.714;2023-04-24T06:28:36;21.92;;;12.23;;
78027;SDS011;67235;45.638;11.714;2023-04-24T06:31:04;16.85;;;9.40;;
78027;SDS011;67235;45.638;11.714;2023-04-24T06:33:31;20.67;;;11.38;;
78027;SDS011;67235;45.638;11.714;2023-04-24T06:36:04;18.97;;;10.57;;
78027;SDS011;67235;45.638;11.714;2023-04-24T06:38:52;37.38;;;25.88;;
78027;SDS011;67235;45.638;11.714;2023-04-24T06:41:28;30.70;;;19.92;;
78027;SDS011;67235;45.638;11.714;2023-04-24T06:43:57;40.33;;;30.05;;
78027;SDS011;67235;45.638;11.714;2023-04-24T06:46:23;49.85;;;37.20;;
78027;SDS011;67235;45.638;11.714;2023-04-24T06:48:54;33.80;;;22.73;;
78027;SDS011;67235;45.638;11.714;2023-04-24T06:51:24;16.15;;;11.10;;
78027;SDS011;67235;45.638;11.714;2023-04-24T06:53:53;13.23;;;7.72;;
78027;SDS011;67235;45.638;11.714;2023-04-24T06:56:23;14.50;;;6.70;;
78027;SDS011;67235;45.638;11.714;2023-04-24T06:58:51;12.07;;;5.75;;
78027;SDS011;67235;45.638;11.714;2023-04-24T07:01:19;12.17;;;5.43;;
78027;SDS011;67235;45.638;11.714;2023-04-24T07:03:46;10.30;;;4.80;;
78027;SDS011;67235;45.638;11.714;2023-04-24T07:06:15;9.27;;;4.90;;
78027;SDS011;67235;45.638;11.714;2023-04-24T07:08:47;8.60;;;4.63;;
78027;SDS011;67235;45.638;11.714;2023-04-24T07:11:14;8.30;;;3.95;;
78027;SDS011;67235;45.638;11.714;2023-04-24T07:13:43;9.07;;;4.23;;
78027;SDS011;67235;45.638;11.714;2023-04-24T07:16:14;9.20;;;4.40;;
78027;SDS011;67235;45.638;11.714;2023-04-24T07:18:47;9.45;;;4.97;;
78027;SDS011;67235;45.638;11.714;2023-04-24T07:21:15;9.00;;;4.32;;
78027;SDS011;67235;45.638;11.714;2023-04-24T07:23:42;10.13;;;5.07;;
78027;SDS011;67235;45.638;11.714;2023-04-24T07:26:09;15.80;;;5.90;;
78027;SDS011;67235;45.638;11.714;2023-04-24T07:28:36;11.95;;;5.68;;
78027;SDS011;67235;45.638;11.714;2023-04-24T07:31:03;11.15;;;5.88;;
78027;SDS011;67235;45.638;11.714;2023-04-24T07:33:31;12.43;;;5.00;;
78027;SDS011;67235;45.638;11.714;2023-04-24T07:35:57;9.10;;;4.27;;
78027;SDS011;67235;45.638;11.714;2023-04-24T07:38:23;5.03;;;1.55;;
78027;SDS011;67235;45.638;11.714;2023-04-24T07:40:50;3.88;;;0.75;;
78027;SDS011;67235;45.638;11.714;2023-04-24T07:43:17;1.92;;;0.20;;
78027;SDS011;67235;45.638;11.714;2023-04-24T07:45:43;2.58;;;0.40;;
78027;SDS011;67235;45.638;11.714;2023-04-24T07:48:09;3.67;;;0.40;;
78027;SDS011;67235;45.638;11.714;2023-04-24T07:50:35;2.22;;;0.40;;
78027;SDS011;67235;45.638;11.714;2023-04-24T07:53:01;4.25;;;1.10;;
78027;SDS011;67235;45.638;11.714;2023-04-24T07:55:27;15.88;;;9.73;;
78027;SDS011;67235;45.638;11.714;2023-04-24T07:57:53;7.87;;;4.20;;
78027;SDS011;67235;45.638;11.714;2023-04-24T08:00:19;4.80;;;2.28;;
78027;SDS011;67235;45.638;11.714;2023-04-24T08:02:45;4.10;;;1.10;;
78027;SDS011;67235;45.638;11.714;2023-04-24T08:05:11;4.23;;;1.30;;
78027;SDS011;67235;45.638;11.714;2023-04-24T08:07:37;4.15;;;1.60;;
78027;SDS011;67235;45.638;11.714;2023-04-24T08:10:04;4.00;;;1.30;;
78027;SDS011;67235;45.638;11.714;2023-04-24T08:12:30;8.90;;;4.35;;
78027;SDS011;67235;45.638;11.714;2023-04-24T08:14:56;5.27;;;1.53;;
78027;SDS011;67235;45.638;11.714;2023-04-24T08:17:22;5.57;;;2.60;;
78027;SDS011;67235;45.638;11.714;2023-04-24T08:19:48;5.93;;;2.38;;
78027;SDS011;67235;45.638;11.714;2023-04-24T08:22:16;12.13;;;7.88;;
78027;SDS011;67235;45.638;11.714;2023-04-24T08:24:42;5.80;;;1.90;;
78027;SDS011;67235;45.638;11.714;2023-04-24T08:27:08;4.43;;;1.40;;
78027;SDS011;67235;45.638;11.714;2023-04-24T08:29:35;3.63;;;1.15;;
78027;SDS011;67235;45.638;11.714;2023-04-24T08:32:02;3.80;;;1.08;;
78027;SDS011;67235;45.638;11.714;2023-04-24T08:34:27;4.30;;;1.70;;
78027;SDS011;67235;45.638;11.714;2023-04-24T08:36:53;4.20;;;1.50;;
78027;SDS011;67235;45.638;11.714;2023-04-24T08:39:19;4.25;;;1.40;;
78027;SDS011;67235;45.638;11.714;2023-04-24T08:41:45;5.18;;;1.25;;
78027;SDS011;67235;45.638;11.714;2023-04-24T08:44:13;5.03;;;1.10;;
78027;SDS011;67235;45.638;11.714;2023-04-24T08:46:41;4.47;;;1.30;;
78027;SDS011;67235;45.638;11.714;2023-04-24T08:49:10;3.95;;;1.40;;
78027;SDS011;67235;45.638;11.714;2023-04-24T08:51:38;4.30;;;1.73;;
78027;SDS011;67235;45.638;11.714;2023-04-24T08:54:04;4.97;;;1.92;;
78027;SDS011;67235;45.638;11.714;2023-04-24T08:56:32;5.43;;;1.70;;
78027;SDS011;67235;45.638;11.714;2023-04-24T08:59:03;4.22;;;1.50;;
78027;SDS011;67235;45.638;11.714;2023-04-24T09:01:29;5.75;;;2.70;;
78027;SDS011;67235;45.638;11.714;2023-04-24T09:03:58;5.13;;;2.17;;
78027;SDS011;67235;45.638;11.714;2023-04-24T09:06:29;4.50;;;1.90;;
78027;SDS011;67235;45.638;11.714;2023-04-24T09:08:58;5.18;;;1.30;;
78027;SDS011;67235;45.638;11.714;2023-04-24T09:11:26;6.28;;;3.88;;
78027;SDS011;67235;45.638;11.714;2023-04-24T09:13:55;4.75;;;1.50;;
78027;SDS011;67235;45.638;11.714;2023-04-24T09:16:21;7.30;;;4.47;;
78027;SDS011;67235;45.638;11.714;2023-04-24T09:18:49;5.15;;;1.38;;
78027;SDS011;67235;45.638;11.714;2023-04-24T09:21:15;3.25;;;1.00;;
78027;SDS011;67235;45.638;11.714;2023-04-24T09:23:41;4.38;;;1.13;;
78027;SDS011;67235;45.638;11.714;2023-04-24T09:26:08;3.83;;;0.90;;
78027;SDS011;67235;45.638;11.714;2023-04-24T09:28:36;2.95;;;0.65;;
78027;SDS011;67235;45.638;11.714;2023-04-24T09:33:34;5.00;;;1.73;;
78027;SDS011;67235;45.638;11.714;2023-04-24T09:36:00;12.35;;;6.78;;
78027;SDS011;67235;45.638;11.714;2023-04-24T09:38:34;4.57;;;1.13;;
78027;SDS011;67235;45.638;11.714;2023-04-24T09:41:02;3.58;;;0.60;;
78027;SDS011;67235;45.638;11.714;2023-04-24T09:43:29;3.30;;;0.70;;
78027;SDS011;67235;45.638;11.714;2023-04-24T09:45:56;3.35;;;0.90;;
78027;SDS011;67235;45.638;11.714;2023-04-24T09:48:32;3.05;;;0.38;;
78027;SDS011;67235;45.638;11.714;2023-04-24T09:51:03;3.33;;;0.70;;
78027;SDS011;67235;45.638;11.714;2023-04-24T09:53:31;2.63;;;0.63;;
78027;SDS011;67235;45.638;11.714;2023-04-24T09:56:18;9.38;;;4.97;;
78027;SDS011;67235;45.638;11.714;2023-04-24T09:58:45;6.15;;;2.72;;
78027;SDS011;67235;45.638;11.714;2023-04-24T10:01:13;4.50;;;1.33;;
78027;SDS011;67235;45.638;11.714;2023-04-24T10:03:58;2.47;;;0.60;;
78027;SDS011;67235;45.638;11.714;2023-04-24T10:06:34;2.45;;;0.50;;
78027;SDS011;67235;45.638;11.714;2023-04-24T10:09:03;2.53;;;0.40;;
78027;SDS011;67235;45.638;11.714;2023-04-24T10:11:30;3.22;;;0.40;;
78027;SDS011;67235;45.638;11.714;2023-04-24T10:14:04;1.52;;;0.20;;
78027;SDS011;67235;45.638;11.714;2023-04-24T10:16:33;3.00;;;0.38;;
78027;SDS011;67235;45.638;11.714;2023-04-24T10:19:00;2.08;;;0.40;;
78027;SDS011;67235;45.638;11.714;2023-04-24T10:21:28;2.30;;;0.20;;
78027;SDS011;67235;45.638;11.714;2023-04-24T10:23:54;2.25;;;0.45;;
78027;SDS011;67235;45.638;11.714;2023-04-24T10:26:20;2.13;;;0.38;;
78027;SDS011;67235;45.638;11.714;2023-04-24T10:28:47;1.90;;;0.30;;
78027;SDS011;67235;45.638;11.714;2023-04-24T10:31:14;2.72;;;0.50;;
78027;SDS011;67235;45.638;11.714;2023-04-24T10:33:41;1.87;;;0.37;;
78027;SDS011;67235;45.638;11.714;2023-04-24T10:36:09;2.13;;;0.30;;
78027;SDS011;67235;45.638;11.714;2023-04-24T10:38:36;1.85;;;0.30;;
78027;SDS011;67235;45.638;11.714;2023-04-24T10:43:41;1.85;;;0.32;;
78027;SDS011;67235;45.638;11.714;2023-04-24T10:46:08;1.83;;;0.30;;
78027;SDS011;67235;45.638;11.714;2023-04-24T10:48:52;2.00;;;0.30;;
78027;SDS011;67235;45.638;11.714;2023-04-24T10:51:23;1.95;;;0.38;;
78027;SDS011;67235;45.638;11.714;2023-04-24T10:53:51;1.80;;;0.40;;
78027;SDS011;67235;45.638;11.714;2023-04-24T10:56:17;3.42;;;0.57;;
78027;SDS011;67235;45.638;11.714;2023-04-24T10:58:49;2.97;;;0.40;;
78027;SDS011;67235;45.638;11.714;2023-04-24T11:04:00;2.45;;;0.50;;
78027;SDS011;67235;45.638;11.714;2023-04-24T11:06:30;2.88;;;0.60;;
78027;SDS011;67235;45.638;11.714;2023-04-24T11:11:31;2.43;;;0.50;;
78027;SDS011;67235;45.638;11.714;2023-04-24T11:16:31;2.95;;;0.70;;
78027;SDS011;67235;45.638;11.714;2023-04-24T11:19:08;5.05;;;0.40;;
78027;SDS011;67235;45.638;11.714;2023-04-24T11:21:56;2.67;;;0.70;;
78027;SDS011;67235;45.638;11.714;2023-04-24T11:24:30;2.80;;;0.60;;
78027;SDS011;67235;45.638;11.714;2023-04-24T11:27:19;2.60;;;0.40;;
78027;SDS011;67235;45.638;11.714;2023-04-24T11:29:58;2.63;;;0.50;;
78027;SDS011;67235;45.638;11.714;2023-04-24T11:34:59;2.80;;;0.60;;
78027;SDS011;67235;45.638;11.714;2023-04-24T11:37:34;3.03;;;0.50;;
78027;SDS011;67235;45.638;11.714;2023-04-24T11:40:04;2.70;;;0.55;;
78027;SDS011;67235;45.638;11.714;2023-04-24T11:42:35;3.50;;;0.60;;
78027;SDS011;67235;45.638;11.714;2023-04-24T11:45:01;3.17;;;0.70;;
78027;SDS011;67235;45.638;11.714;2023-04-24T11:47:32;2.55;;;0.57;;
78027;SDS011;67235;45.638;11.714;2023-04-24T11:49:58;4.57;;;0.70;;
78027;SDS011;67235;45.638;11.714;2023-04-24T11:52:25;3.97;;;0.63;;
78027;SDS011;67235;45.638;11.714;2023-04-24T11:54:52;2.70;;;0.70;;
78027;SDS011;67235;45.638;11.714;2023-04-24T11:57:24;2.78;;;0.55;;
78027;SDS011;67235;45.638;11.714;2023-04-24T11:59:53;3.10;;;0.90;;
78027;SDS011;67235;45.638;11.714;2023-04-24T12:02:26;2.87;;;0.70;;
78027;SDS011;67235;45.638;11.714;2023-04-24T12:04:53;3.65;;;1.08;;
78027;SDS011;67235;45.638;11.714;2023-04-24T12:07:19;3.00;;;0.70;;
78027;SDS011;67235;45.638;11.714;2023-04-24T12:09:47;3.58;;;0.73;;
78027;SDS011;67235;45.638;11.714;2023-04-24T12:12:15;3.10;;;0.70;;
78027;SDS011;67235;45.638;11.714;2023-04-24T12:14:44;3.88;;;0.88;;
78027;SDS011;67235;45.638;11.714;2023-04-24T12:19:52;3.20;;;0.90;;
78027;SDS011;67235;45.638;11.714;2023-04-24T12:22:24;3.20;;;0.85;;
78027;SDS011;67235;45.638;11.714;2023-04-24T12:24:56;3.23;;;0.80;;
78027;SDS011;67235;45.638;11.714;2023-04-24T12:27:23;4.00;;;0.65;;
78027;SDS011;67235;45.638;11.714;2023-04-24T12:29:53;3.20;;;0.95;;
78027;SDS011;67235;45.638;11.714;2023-04-24T12:32:22;3.25;;;1.00;;
78027;SDS011;67235;45.638;11.714;2023-04-24T12:34:50;3.00;;;0.70;;
78027;SDS011;67235;45.638;11.714;2023-04-24T12:37:17;3.63;;;1.05;;
78027;SDS011;67235;45.638;11.714;2023-04-24T12:40:02;3.30;;;0.90;;
78027;SDS011;67235;45.638;11.714;2023-04-24T12:42:32;3.45;;;0.90;;
78027;SDS011;67235;45.638;11.714;2023-04-24T12:45:01;3.53;;;1.00;;
78027;SDS011;67235;45.638;11.714;2023-04-24T12:47:29;3.90;;;1.00;;
78027;SDS011;67235;45.638;11.714;2023-04-24T12:49:55;2.70;;;0.70;;
78027;SDS011;67235;45.638;11.714;2023-04-24T12:52:25;3.45;;;0.85;;
78027;SDS011;67235;45.638;11.714;2023-04-24T12:54:55;4.15;;;1.10;;
78027;SDS011;67235;45.638;11.714;2023-04-24T12:57:23;4.25;;;1.20;;
78027;SDS011;67235;45.638;11.714;2023-04-24T12:59:50;3.70;;;1.27;;
78027;SDS011;67235;45.638;11.714;2023-04-24T13:02:19;3.70;;;1.40;;
78027;SDS011;67235;45.638;11.714;2023-04-24T13:04:46;3.50;;;1.20;;
78027;SDS011;67235;45.638;11.714;2023-04-24T13:07:15;3.45;;;1.10;;
78027;SDS011;67235;45.638;11.714;2023-04-24T13:09:42;4.25;;;1.45;;
78027;SDS011;67235;45.638;11.714;2023-04-24T13:12:08;4.10;;;1.20;;
78027;SDS011;67235;45.638;11.714;2023-04-24T13:14:35;2.90;;;0.80;;
78027;SDS011;67235;45.638;11.714;2023-04-24T13:17:01;5.03;;;1.23;;
78027;SDS011;67235;45.638;11.714;2023-04-24T13:19:28;5.35;;;1.40;;
78027;SDS011;67235;45.638;11.714;2023-04-24T13:21:54;3.70;;;1.20;;
78027;SDS011;67235;45.638;11.714;2023-04-24T13:24:22;3.80;;;1.10;;
78027;SDS011;67235;45.638;11.714;2023-04-24T13:26:51;4.35;;;1.40;;
78027;SDS011;67235;45.638;11.714;2023-04-24T13:29:18;3.65;;;1.15;;
78027;SDS011;67235;45.638;11.714;2023-04-24T13:31:44;3.77;;;1.10;;
78027;SDS011;67235;45.638;11.714;2023-04-24T13:34:10;5.45;;;1.15;;
78027;SDS011;67235;45.638;11.714;2023-04-24T13:36:35;3.40;;;0.90;;
78027;SDS011;67235;45.638;11.714;2023-04-24T13:39:02;3.60;;;1.10;;
78027;SDS011;67235;45.638;11.714;2023-04-24T13:41:32;3.80;;;1.23;;
78027;SDS011;67235;45.638;11.714;2023-04-24T13:44:00;3.92;;;1.30;;
78027;SDS011;67235;45.638;11.714;2023-04-24T13:46:35;3.75;;;1.10;;
78027;SDS011;67235;45.638;11.714;2023-04-24T13:49:03;3.33;;;1.30;;
78027;SDS011;67235;45.638;11.714;2023-04-24T13:51:30;3.40;;;1.10;;
78027;SDS011;67235;45.638;11.714;2023-04-24T13:53:56;3.85;;;1.20;;
78027;SDS011;67235;45.638;11.714;2023-04-24T13:56:23;3.65;;;1.10;;
78027;SDS011;67235;45.638;11.714;2023-04-24T13:58:54;3.42;;;0.98;;
78027;SDS011;67235;45.638;11.714;2023-04-24T14:01:21;3.85;;;1.05;;
78027;SDS011;67235;45.638;11.714;2023-04-24T14:03:50;3.30;;;0.80;;
78027;SDS011;67235;45.638;11.714;2023-04-24T14:06:17;3.25;;;0.88;;
78027;SDS011;67235;45.638;11.714;2023-04-24T14:08:44;3.70;;;1.13;;
78027;SDS011;67235;45.638;11.714;2023-04-24T14:11:10;3.42;;;1.13;;
78027;SDS011;67235;45.638;11.714;2023-04-24T14:13:36;4.57;;;1.20;;
78027;SDS011;67235;45.638;11.714;2023-04-24T14:16:05;3.42;;;1.00;;
78027;SDS011;67235;45.638;11.714;2023-04-24T14:18:32;4.10;;;1.33;;
78027;SDS011;67235;45.638;11.714;2023-04-24T14:20:58;3.60;;;1.25;;
78027;SDS011;67235;45.638;11.714;2023-04-24T14:23:24;3.60;;;1.10;;
78027;SDS011;67235;45.638;11.714;2023-04-24T14:25:50;4.30;;;1.27;;
78027;SDS011;67235;45.638;11.714;2023-04-24T14:28:19;3.53;;;1.13;;
78027;SDS011;67235;45.638;11.714;2023-04-24T14:30:46;4.50;;;1.70;;
78027;SDS011;67235;45.638;11.714;2023-04-24T14:33:12;4.53;;;1.90;;
78027;SDS011;67235;45.638;11.714;2023-04-24T14:35:39;3.83;;;1.55;;
78027;SDS011;67235;45.638;11.714;2023-04-24T14:38:07;3.40;;;1.00;;
78027;SDS011;67235;45.638;11.714;2023-04-24T14:40:33;3.72;;;1.30;;
78027;SDS011;67235;45.638;11.714;2023-04-24T14:42:59;3.58;;;1.20;;
78027;SDS011;67235;45.638;11.714;2023-04-24T14:45:25;3.57;;;1.00;;